Date,TemperatureHighF,TemperatureAvgF,TemperatureLowF,DewpointHighF,DewpointAvgF,DewpointLowF,HumidityHigh,HumidityAvg,HumidityLow,PressureMaxIn,PressureMinIn,WindSpeedMaxMPH,WindSpeedAvgMPH,GustSpeedMaxMPH,PrecipitationSumIn
2013-2-1,40.8,29.2,19.6,34.0,16.7,6.6,100,61,33,30.52,30.23,24,7,24,0.00
2013-2-2,33.4,26.3,16.7,33.2,23.8,13.2,100,91,52,30.51,30.27,10,1,10,0.00
2013-2-3,48.6,36.9,28.4,41.2,31.7,26.3,100,83,50,30.29,30.14,21,4,21,0.17
2013-2-4,50.7,36.6,24.4,34.5,29.2,23.8,100,77,49,30.31,30.17,8,1,8,0.00
2013-2-5,65.5,45.3,27.1,48.8,40.6,14.0,100,86,48,30.32,30.09,8,1,8,0.00
2013-2-6,69.6,46.6,30.2,46.9,34.5,28.8,100,69,29,30.37,30.23,11,2,11,0.00
2013-2-7,50.2,44.1,36.9,49.9,41.4,30.1,100,91,66,30.36,30.13,14,1,14,0.20
2013-2-8,54.9,44.2,32.2,51.7,42.5,31.3,99,94,67,30.37,30.10,17,4,17,0.11
2013-2-9,70.7,43.6,25.3,40.0,31.0,24.6,100,68,28,30.46,30.34,8,2,8,0.00
2013-2-10,56.7,48.1,43.7,52.4,35.5,22.7,99,66,29,30.48,30.26,22,5,22,0.73
2013-2-11,56.1,50.6,41.5,55.7,50.0,41.1,100,98,84,30.30,30.20,14,2,14,0.18
2013-2-12,54.5,43.6,34.0,43.8,39.1,33.0,100,86,53,30.31,30.04,8,1,8,0.22
2013-2-13,48.7,42.0,34.5,48.5,41.7,34.3,100,99,94,30.05,29.54,15,4,15,0.04
2013-2-14,60.3,42.8,34.0,39.0,35.2,33.0,100,78,42,29.87,29.75,11,3,11,0.00
2013-2-15,61.2,40.6,27.7,45.7,35.7,27.3,100,86,40,29.91,29.77,14,3,14,0.08
2013-2-16,36.5,30.4,24.1,33.7,23.6,13.4,100,78,45,30.26,30.11,21,6,21,0.00
2013-2-17,42.6,28.7,17.1,18.5,13.2,9.7,76,53,33,30.42,30.26,23,4,23,0.00
2013-2-18,59.7,40.2,19.8,33.0,24.7,14.9,92,57,34,30.49,30.28,26,5,26,0.00
2013-2-19,55.2,43.2,34.9,49.4,30.0,15.3,99,65,27,30.33,30.13,26,7,26,0.27
2013-2-20,47.8,34.2,25.7,18.9,14.0,5.6,73,46,21,30.35,30.29,15,4,15,0.00
2013-2-21,72.0,43.7,23.9,44.6,26.4,13.9,100,58,16,30.35,30.15,13,2,13,0.45
2013-2-22,50.0,44.6,39.7,48.6,44.0,39.5,100,98,91,30.34,30.19,10,2,10,0.58
2013-2-23,59.9,49.3,42.6,59.7,48.8,42.2,100,98,91,30.22,30.03,11,1,11,0.31
2013-2-24,61.5,46.7,32.7,46.0,35.7,28.1,99,71,31,30.22,30.10,13,3,13,0.00
2013-2-25,60.3,42.3,30.7,43.3,35.1,28.0,100,78,44,30.23,30.01,16,2,16,0.00
2013-2-26,54.5,46.3,39.7,53.0,44.6,35.8,100,94,77,30.02,29.71,27,7,27,0.72
2013-2-27,59.4,43.4,37.0,42.3,37.0,33.0,100,80,45,30.05,29.93,20,5,20,0.04
2013-2-28,39.0,34.5,32.2,36.1,29.1,26.2,91,81,72,30.15,30.00,18,7,18,0.01